EBCILFQQ

Guest
Details From EBCI - Brussels South - Charleroi
To LFQQ - Lille Lesquin
Flight Number -
Tags decoded
Created
Modified
Stats Distance 52 nm / 97 km
Max Altitude 0 ft / 0 m
Waypoints 2
Social Downloads 2
Likes 0
Share VATSIM

Download

Looking for another format? Having issues loading an existing format? Contact us
Advertisement - Login to hide

Notes

Requested: EBCI LFQQ

Route

EBCI LFQQ

ID Type Via Altitude Latitude Longitude Leg Dist Tot Dist Heading (true) Name
O EBCI APT - 0 ft / 0 m 50.45995˚ 4.45312˚ - 0 nm - Brussels South - Charleroi
O LFQQ APT - 0 ft / 0 m 50.56633˚ 3.09538˚ 52 nm 52 nm 278° / 277° Lille Lesquin

Altitude Profile

Advertisement - Login to hide

EBCI

Details ICAO EBCI (CRL)
Name Brussels South - Charleroi
Region Belgium
Timezone Europe/Brussels (UTC+2.0)
Stats Elevation 614 ft / 187 m (AMSL)
Location 50.459947° 4.453125°
Runways 1
Magnetic Variation 1.194° E

METAR

EBCI 251120Z VRB01KT 9999 FEW030 23/12 Q1018 NOSIG

Decode

TAF

TAF EBCI 251100Z 2512/2618 VRB03KT 9999 SCT035 PROB30 TEMPO 2514/2522 VRB15G25KT 3000 SHRA TSRAGR PROB30 TEMPO 2601/2607 3000 BR

Decode

Departure Runways

ID Width Length Bearing (true) Bearing (mag) Surface Threshold Offset Overrun Length
07 148 ft / 45 m 8,374 ft / 2,552 m 65.53° 64.34° Asphalt 1,476 ft / 450 m 0 ft / 0 m
25 148 ft / 45 m 8,374 ft / 2,552 m 245.55° 244.36° Asphalt 0 ft / 0 m 0 ft / 0 m

LFQQ

Details ICAO LFQQ (LIL)
Name Lille Lesquin
Region France
Timezone Europe/Paris (UTC+2.0)
Stats Elevation 156 ft / 48 m (AMSL)
Location 50.566335° 3.095384°
Runways 2
Magnetic Variation 0.765° E

METAR

LFQQ 251130Z AUTO VRB03KT 8000 FEW015 SCT110 BKN220 21/15 Q1018 NOSIG

Decode

TAF

TAF LFQQ 251100Z 2512/2618 VRB02KT 9999 SCT030 PROB30 TEMPO 2516/2602 4000 SHRA BKN040CB PROB40 2602/2606 3000 BR BECMG 2607/2609 06012KT

Decode

Destination Runways

ID Width Length Bearing (true) Bearing (mag) Surface Threshold Offset Overrun Length
02 98 ft / 30 m 5,168 ft / 1,575 m 14.83° 14.06° Asphalt 0 ft / 0 m 0 ft / 0 m
08 146 ft / 45 m 9,250 ft / 2,819 m 77.36° 76.59° Asphalt 0 ft / 0 m 0 ft / 0 m
20 98 ft / 30 m 5,168 ft / 1,575 m 194.83° 194.06° Asphalt 0 ft / 0 m 0 ft / 0 m
26 146 ft / 45 m 9,250 ft / 2,819 m 257.39° 256.62° Asphalt 918 ft / 280 m 0 ft / 0 m

Approach Navaids

Runway Type Ident Frequency Range Bearing (true) Bearing (mag) Slope Elevation
08 Localiser LL 110.10 MHz 18 nm / 33 km 77.13° 76.37° - 135 ft / 41 m (AMSL)
26 Localiser LIL 110.75 MHz 18 nm / 33 km 257.13° 256.37° - 157 ft / 48 m (AMSL)
26 Glidescope LIL 110.75 MHz 15 nm / 28 km 257.00° 256.23° 3.00° 129 ft / 39 m (AMSL)
26 DME LIL 110.75 MHz 25 nm / 46 km - - - 130 ft / 40 m (AMSL)

Popular Alternatives